Time;durP1;ratioP1;P1;durP2;ratioP2;P2;SDS_P1;SDS_P2;PMS_P1;PMS_P2;Temp;Humidity;BMP_temperature;BMP_pressure;BME280_temperature;BME280_humidity;BME280_pressure;Samples;Min_cycle;Max_cycle;Signal;HPM_P1;HPM_P2
2022/04/26 03:37:55;;;;;;;18.93;13.63;;;;;;;;;;4877160;29;20215;-75
2022/04/26 03:40:22;;;;;;;18.50;12.77;;;;;;;;;;4877277;29;20296;-75
2022/04/26 03:42:49;;;;;;;18.20;13.30;;;;;;;;;;4884894;29;20308;-75
2022/04/26 03:45:16;;;;;;;19.23;14.20;;;;;;;;;;4895573;29;20238;-75
2022/04/26 03:47:44;;;;;;;18.77;13.00;;;;;;;;;;4895246;29;20676;-75
2022/04/26 03:50:12;;;;;;;20.93;15.37;;;;;;;;;;4895049;29;20702;-75
2022/04/26 03:52:40;;;;;;;22.27;15.17;;;;;;;;;;4927099;29;20213;-75
2022/04/26 03:55:08;;;;;;;26.73;15.33;;;;;;;;;;4951011;29;20209;-75
2022/04/26 03:57:35;;;;;;;22.50;15.17;;;;;;;;;;4953978;29;20704;-75
2022/04/26 04:00:02;;;;;;;22.37;15.20;;;;;;;;;;4954239;29;20235;-75
2022/04/26 04:02:30;;;;;;;22.20;15.87;;;;;;;;;;4946132;29;20668;-75
2022/04/26 04:04:57;;;;;;;24.00;15.43;;;;;;;;;;4935190;29;20327;-74
2022/04/26 04:07:26;;;;;;;19.87;15.00;;;;;;;;;;4950304;28;20312;-75
2022/04/26 04:09:54;;;;;;;23.77;15.77;;;;;;;;;;4954429;29;20237;-75
2022/04/26 04:12:22;;;;;;;25.40;15.93;;;;;;;;;;4953337;29;20695;-75
2022/04/26 04:14:49;;;;;;;23.03;15.83;;;;;;;;;;4950092;29;20229;-75
2022/04/26 04:17:16;;;;;;;21.03;14.43;;;;;;;;;;4941927;29;20260;-75
2022/04/26 04:19:43;;;;;;;24.60;15.67;;;;;;;;;;4954296;29;20255;-75
2022/04/26 04:22:10;;;;;;;24.93;15.67;;;;;;;;;;4954188;29;20209;-74
2022/04/26 04:24:39;;;;;;;22.87;15.27;;;;;;;;;;4953633;28;20321;-75
2022/04/26 04:27:08;;;;;;;23.70;15.37;;;;;;;;;;4953822;29;20237;-74
2022/04/26 04:29:35;;;;;;;23.60;15.10;;;;;;;;;;4945749;29;20348;-75
2022/04/26 04:32:03;;;;;;;22.07;14.00;;;;;;;;;;4953495;29;20737;-75
2022/04/26 04:34:30;;;;;;;19.30;14.50;;;;;;;;;;4954521;29;20206;-75
2022/04/26 04:36:58;;;;;;;20.87;14.77;;;;;;;;;;4954285;29;20296;-74
2022/04/26 04:39:27;;;;;;;24.97;16.10;;;;;;;;;;4954190;28;20205;-75
2022/04/26 04:41:55;;;;;;;23.77;16.27;;;;;;;;;;4943036;29;20216;-75
2022/04/26 04:44:23;;;;;;;24.47;16.03;;;;;;;;;;4953642;29;20685;-74
2022/04/26 04:46:50;;;;;;;25.20;15.80;;;;;;;;;;4952603;29;20214;-75
2022/04/26 04:49:17;;;;;;;24.57;15.73;;;;;;;;;;4949860;28;20270;-75
2022/04/26 04:51:45;;;;;;;25.97;15.87;;;;;;;;;;4940433;29;20237;-75
2022/04/26 04:54:12;;;;;;;23.47;15.37;;;;;;;;;;4953977;29;20289;-74
2022/04/26 04:56:39;;;;;;;19.27;14.37;;;;;;;;;;4953833;28;20235;-74
2022/04/26 04:59:08;;;;;;;19.07;13.80;;;;;;;;;;4951881;28;20248;-75
2022/04/26 05:01:35;;;;;;;18.03;12.73;;;;;;;;;;4934541;29;20263;-74
2022/04/26 05:04:02;;;;;;;17.73;12.83;;;;;;;;;;4934552;29;20229;-75
2022/04/26 05:06:29;;;;;;;17.57;12.53;;;;;;;;;;4943517;29;21086;-74
2022/04/26 05:08:57;;;;;;;24.27;12.90;;;;;;;;;;4952528;29;20277;-74
2022/04/26 05:11:24;;;;;;;22.83;12.73;;;;;;;;;;4952835;29;20206;-75
2022/04/26 05:13:52;;;;;;;20.60;12.77;;;;;;;;;;4953071;29;20941;-75
2022/04/26 05:16:20;;;;;;;17.20;12.63;;;;;;;;;;4953359;29;20203;-75
2022/04/26 05:18:48;;;;;;;19.17;13.53;;;;;;;;;;4938347;29;20298;-74
2022/04/26 05:21:16;;;;;;;20.20;12.93;;;;;;;;;;4947344;28;20688;-74
2022/04/26 05:26:28;;;;;;;22.27;14.27;;;;;;;;;;4947174;28;20684;-75
2022/04/26 05:28:55;;;;;;;21.03;15.17;;;;;;;;;;4948588;29;20251;-74
2022/04/26 05:31:23;;;;;;;21.57;14.67;;;;;;;;;;4946648;29;20292;-76
2022/04/26 05:33:51;;;;;;;20.27;14.83;;;;;;;;;;4937038;29;20244;-75
2022/04/26 05:36:18;;;;;;;22.87;14.33;;;;;;;;;;4944324;28;20237;-74
2022/04/26 05:38:46;;;;;;;21.80;14.47;;;;;;;;;;4946326;29;21710;-74
2022/04/26 05:41:13;;;;;;;20.47;13.93;;;;;;;;;;4943884;29;20257;-73
2022/04/26 05:43:40;;;;;;;19.50;13.63;;;;;;;;;;4949323;29;20276;-73
2022/04/26 05:46:11;;;;;;;23.30;13.47;;;;;;;;;;4942266;29;20202;-75
2022/04/26 05:48:40;;;;;;;18.07;13.63;;;;;;;;;;4956445;28;20240;-76
2022/04/26 05:51:07;;;;;;;19.40;14.17;;;;;;;;;;4956732;29;20213;-75
2022/04/26 05:53:36;;;;;;;18.87;12.40;;;;;;;;;;4956484;29;20203;-76
2022/04/26 05:56:04;;;;;;;17.63;11.90;;;;;;;;;;4955526;29;20204;-76
2022/04/26 05:58:31;;;;;;;17.17;11.90;;;;;;;;;;4957243;29;20207;-75
2022/04/26 06:00:58;;;;;;;14.77;11.10;;;;;;;;;;4956822;29;20210;-75
2022/04/26 06:03:25;;;;;;;14.23;11.13;;;;;;;;;;4957193;29;20294;-75
2022/04/26 06:05:55;;;;;;;13.77;11.13;;;;;;;;;;4956679;28;20237;-76
2022/04/26 06:08:22;;;;;;;15.83;11.30;;;;;;;;;;4956238;28;20253;-75
2022/04/26 06:10:50;;;;;;;14.97;11.03;;;;;;;;;;4956592;28;20241;-76
2022/04/26 06:13:17;;;;;;;13.87;10.10;;;;;;;;;;4956960;28;20582;-75
2022/04/26 06:15:44;;;;;;;12.70;10.37;;;;;;;;;;4956870;28;20208;-75
2022/04/26 06:18:11;;;;;;;17.20;11.20;;;;;;;;;;4956402;28;20299;-75
2022/04/26 06:20:38;;;;;;;13.00;10.30;;;;;;;;;;4956806;29;20199;-76
2022/04/26 06:23:07;;;;;;;12.27;10.60;;;;;;;;;;4956500;29;20239;-75
2022/04/26 06:25:36;;;;;;;17.77;10.40;;;;;;;;;;4956556;29;20322;-76
2022/04/26 06:28:04;;;;;;;14.30;10.43;;;;;;;;;;4955960;29;20273;-76
2022/04/26 06:30:31;;;;;;;13.20;10.77;;;;;;;;;;4956491;29;20271;-76
2022/04/26 06:32:58;;;;;;;18.40;11.33;;;;;;;;;;4955860;29;20367;-76
2022/04/26 06:35:25;;;;;;;14.23;12.23;;;;;;;;;;4956326;29;20282;-76
2022/04/26 06:37:53;;;;;;;16.80;11.80;;;;;;;;;;4956350;29;20246;-76
2022/04/26 06:40:21;;;;;;;17.37;12.73;;;;;;;;;;4956261;29;20213;-76
2022/04/26 06:42:49;;;;;;;16.87;13.23;;;;;;;;;;4956635;29;20261;-76
2022/04/26 06:45:16;;;;;;;16.23;13.23;;;;;;;;;;4955922;28;20219;-76
2022/04/26 06:47:44;;;;;;;14.97;12.77;;;;;;;;;;4952135;28;20335;-76
2022/04/26 06:50:11;;;;;;;17.73;13.57;;;;;;;;;;4937207;29;20208;-76
2022/04/26 06:52:38;;;;;;;15.37;12.07;;;;;;;;;;4936851;29;20204;-76
2022/04/26 06:55:06;;;;;;;16.87;13.17;;;;;;;;;;4939206;29;20227;-76
2022/04/26 06:57:37;;;;;;;14.67;13.07;;;;;;;;;;4956296;29;20282;-77
2022/04/26 07:00:05;;;;;;;14.47;12.60;;;;;;;;;;4956051;28;20291;-77
2022/04/26 07:02:33;;;;;;;15.75;12.63;;;;;;;;;;4955913;28;20211;-76
2022/04/26 07:05:00;;;;;;;12.95;11.65;;;;;;;;;;4955733;29;20560;-77
2022/04/26 07:07:27;;;;;;;15.65;13.30;;;;;;;;;;4955106;28;20254;-76
2022/04/26 07:09:54;;;;;;;15.48;12.65;;;;;;;;;;4956259;28;20235;-76
2022/04/26 07:12:22;;;;;;;17.48;13.07;;;;;;;;;;4955862;28;20254;-77
2022/04/26 07:14:50;;;;;;;14.43;12.15;;;;;;;;;;4956265;28;20327;-77
2022/04/26 07:17:18;;;;;;;14.80;12.23;;;;;;;;;;4955633;28;20294;-77
2022/04/26 07:19:45;;;;;;;14.70;12.30;;;;;;;;;;4955471;28;20298;-77
2022/04/26 07:22:13;;;;;;;14.90;11.60;;;;;;;;;;4955675;29;20730;-77
2022/04/26 07:24:41;;;;;;;14.75;11.82;;;;;;;;;;4955491;28;20301;-77
2022/04/26 07:27:08;;;;;;;14.10;11.27;;;;;;;;;;4955944;28;20289;-77
2022/04/26 07:29:35;;;;;;;16.02;11.55;;;;;;;;;;4955489;28;20242;-77
2022/04/26 07:32:04;;;;;;;12.73;10.77;;;;;;;;;;4955797;28;20285;-77
2022/04/26 07:34:31;;;;;;;14.23;11.02;;;;;;;;;;4955050;28;20200;-77
2022/04/26 07:37:01;;;;;;;12.15;10.30;;;;;;;;;;4953547;29;20258;-77
2022/04/26 07:39:29;;;;;;;13.07;11.13;;;;;;;;;;4936010;29;20664;-77
2022/04/26 07:41:56;;;;;;;14.90;10.35;;;;;;;;;;4936133;29;20694;-77
2022/04/26 07:44:23;;;;;;;12.82;9.88;;;;;;;;;;4936238;29;20383;-77
2022/04/26 07:46:52;;;;;;;10.50;8.98;;;;;;;;;;4935835;29;20694;-77
2022/04/26 07:49:21;;;;;;;11.48;9.38;;;;;;;;;;4935959;29;20287;-77
2022/04/26 07:51:48;;;;;;;11.68;9.05;;;;;;;;;;4935646;29;20555;-78
2022/04/26 07:54:16;;;;;;;11.82;8.40;;;;;;;;;;4935986;29;20227;-77
2022/04/26 07:56:44;;;;;;;10.45;8.90;;;;;;;;;;4941538;29;20270;-77
2022/04/26 07:59:11;;;;;;;10.35;9.35;;;;;;;;;;4954513;28;20251;-78
2022/04/26 08:01:38;;;;;;;12.30;8.70;;;;;;;;;;4954933;29;20587;-78
2022/04/26 08:04:06;;;;;;;10.63;9.20;;;;;;;;;;4954708;29;20205;-78
2022/04/26 08:06:34;;;;;;;13.30;9.70;;;;;;;;;;4955249;29;20242;-78
2022/04/26 08:09:01;;;;;;;10.73;8.80;;;;;;;;;;4954532;28;20622;-78
2022/04/26 08:11:29;;;;;;;12.48;9.27;;;;;;;;;;4955156;29;20230;-78
2022/04/26 08:13:56;;;;;;;10.93;8.88;;;;;;;;;;4954350;28;20199;-78
2022/04/26 08:16:24;;;;;;;10.40;8.88;;;;;;;;;;4954532;28;20203;-77
2022/04/26 08:18:51;;;;;;;12.95;9.15;;;;;;;;;;4954380;29;20238;-78
2022/04/26 08:21:18;;;;;;;11.75;8.70;;;;;;;;;;4954682;29;20210;-78
2022/04/26 08:29:17;;;;;;;10.70;9.18;;;;;;;;;;4954961;29;20198;-78
2022/04/26 08:31:45;;;;;;;11.75;9.75;;;;;;;;;;4954969;28;20238;-78
2022/04/26 08:34:12;;;;;;;11.85;9.25;;;;;;;;;;4953947;28;20207;-78
2022/04/26 08:36:39;;;;;;;11.07;9.65;;;;;;;;;;4954776;28;20297;-76
2022/04/26 08:39:08;;;;;;;12.95;10.23;;;;;;;;;;4954245;28;20214;-78
2022/04/26 08:41:35;;;;;;;11.82;10.60;;;;;;;;;;4954175;28;20298;-77
2022/04/26 08:44:03;;;;;;;11.18;10.07;;;;;;;;;;4954323;28;20559;-78
2022/04/26 08:52:00;;;;;;;12.07;10.35;;;;;;;;;;4954312;29;20206;-78
2022/04/26 08:54:30;;;;;;;13.38;11.32;;;;;;;;;;4954080;29;20199;-78
2022/04/26 08:56:57;;;;;;;12.43;10.13;;;;;;;;;;4954336;29;20243;-78
2022/04/26 08:59:24;;;;;;;14.07;10.80;;;;;;;;;;4953762;28;20242;-78
2022/04/26 09:01:52;;;;;;;11.90;10.63;;;;;;;;;;4954172;28;20211;-78
2022/04/26 09:04:19;;;;;;;13.57;10.98;;;;;;;;;;4953961;28;20230;-78
2022/04/26 09:06:46;;;;;;;12.85;10.82;;;;;;;;;;4953703;28;20290;-78
2022/04/26 09:09:14;;;;;;;12.98;9.93;;;;;;;;;;4952850;28;20746;-78
2022/04/26 09:11:43;;;;;;;13.13;10.57;;;;;;;;;;4953041;28;20298;-78
2022/04/26 09:14:12;;;;;;;14.25;10.73;;;;;;;;;;4953672;29;20211;-78
2022/04/26 09:16:39;;;;;;;14.23;10.80;;;;;;;;;;4953137;29;20282;-78
2022/04/26 09:19:06;;;;;;;14.60;10.93;;;;;;;;;;4953642;29;20237;-78
2022/04/26 09:21:34;;;;;;;12.20;10.90;;;;;;;;;;4953863;28;20209;-78
2022/04/26 09:24:02;;;;;;;11.75;10.43;;;;;;;;;;4953940;28;20239;-79
2022/04/26 09:26:37;;;;;;;14.57;9.98;;;;;;;;;;4953698;28;20226;-78
2022/04/26 09:29:06;;;;;;;10.63;9.52;;;;;;;;;;4953992;29;20697;-79
2022/04/26 09:31:34;;;;;;;12.55;11.00;;;;;;;;;;4953016;28;20258;-78
2022/04/26 09:34:05;;;;;;;10.95;9.82;;;;;;;;;;4953700;28;20207;-78
2022/04/26 09:36:35;;;;;;;10.88;9.88;;;;;;;;;;4953742;28;20242;-79
2022/04/26 09:39:03;;;;;;;11.15;10.05;;;;;;;;;;4953924;28;20203;-76
2022/04/26 09:41:31;;;;;;;11.13;9.68;;;;;;;;;;4953955;28;20235;-79
2022/04/26 09:44:01;;;;;;;12.05;10.48;;;;;;;;;;4953865;28;20651;-79
2022/04/26 09:46:46;;;;;;;20.63;11.10;;;;;;;;;;4952945;28;20342;-79
2022/04/26 09:49:14;;;;;;;11.95;10.55;;;;;;;;;;4953803;29;20207;-79
2022/04/26 09:51:42;;;;;;;12.77;10.98;;;;;;;;;;4953561;29;20213;-78
2022/04/26 09:54:09;;;;;;;12.57;10.10;;;;;;;;;;4953386;29;20236;-78
2022/04/26 09:56:36;;;;;;;11.15;10.07;;;;;;;;;;4953432;29;20250;-78
2022/04/26 09:59:05;;;;;;;12.23;10.68;;;;;;;;;;4953644;28;20298;-78
2022/04/26 10:01:33;;;;;;;11.55;10.45;;;;;;;;;;4953396;28;20250;-78
2022/04/26 10:04:03;;;;;;;12.55;11.05;;;;;;;;;;4953578;29;20207;-79
2022/04/26 10:06:34;;;;;;;12.30;11.05;;;;;;;;;;4952899;29;20243;-78
2022/04/26 10:09:02;;;;;;;14.10;11.80;;;;;;;;;;4952747;28;20246;-78
2022/04/26 10:11:30;;;;;;;12.20;10.90;;;;;;;;;;4953505;29;20238;-78
2022/04/26 10:13:57;;;;;;;12.88;10.93;;;;;;;;;;4952925;28;20308;-78
2022/04/26 10:16:25;;;;;;;12.70;11.38;;;;;;;;;;4953535;28;20286;-78
2022/04/26 10:18:52;;;;;;;12.68;10.77;;;;;;;;;;4953308;29;20664;-78
2022/04/26 10:21:35;;;;;;;12.45;11.07;;;;;;;;;;4953643;28;20536;-78
2022/04/26 10:24:17;;;;;;;11.13;9.95;;;;;;;;;;4955768;29;20207;-78
2022/04/26 10:26:45;;;;;;;13.27;10.98;;;;;;;;;;4956926;28;20230;-78
2022/04/26 10:29:20;;;;;;;12.40;10.95;;;;;;;;;;4956460;29;20293;-78
2022/04/26 10:31:48;;;;;;;11.40;9.55;;;;;;;;;;4956037;28;20258;-78
2022/04/26 10:34:20;;;;;;;11.02;9.93;;;;;;;;;;4956683;29;20203;-78
2022/04/26 10:36:48;;;;;;;13.18;10.73;;;;;;;;;;4956709;29;20199;-78
2022/04/26 10:39:31;;;;;;;12.07;10.75;;;;;;;;;;4956986;29;20281;-78
2022/04/26 10:41:59;;;;;;;12.48;10.55;;;;;;;;;;4956129;29;20209;-78
2022/04/26 10:44:27;;;;;;;11.98;10.15;;;;;;;;;;4956410;29;20211;-78
2022/04/26 10:47:18;;;;;;;11.30;10.05;;;;;;;;;;4956291;29;20235;-78
2022/04/26 10:49:45;;;;;;;11.65;10.40;;;;;;;;;;4956662;29;20296;-78
2022/04/26 10:52:34;;;;;;;11.35;10.15;;;;;;;;;;4956155;29;20277;-78
2022/04/26 10:55:03;;;;;;;13.32;10.18;;;;;;;;;;4956313;29;20203;-78
2022/04/26 10:57:31;;;;;;;12.35;10.32;;;;;;;;;;4956169;29;20211;-77
2022/04/26 10:59:59;;;;;;;12.38;10.32;;;;;;;;;;4956121;29;20294;-77
2022/04/26 11:02:27;;;;;;;11.00;9.52;;;;;;;;;;4955902;29;20203;-77
2022/04/26 11:04:57;;;;;;;11.93;9.55;;;;;;;;;;4955801;29;20241;-77
2022/04/26 11:07:27;;;;;;;11.32;10.10;;;;;;;;;;4951858;28;20255;-77
2022/04/26 11:09:55;;;;;;;12.80;10.48;;;;;;;;;;4936773;29;20200;-77
2022/04/26 11:12:24;;;;;;;10.95;9.65;;;;;;;;;;4936367;29;20259;-77
2022/04/26 11:14:53;;;;;;;10.90;9.77;;;;;;;;;;4937008;29;20210;-77
2022/04/26 11:17:22;;;;;;;14.32;9.77;;;;;;;;;;4936809;29;20231;-77
2022/04/26 11:19:50;;;;;;;10.27;9.23;;;;;;;;;;4936814;29;20204;-77
2022/04/26 11:22:17;;;;;;;11.20;9.30;;;;;;;;;;4936526;29;20235;-77
2022/04/26 11:30:24;;;;;;;10.30;8.68;;;;;;;;;;4936368;29;20211;-77
2022/04/26 11:32:51;;;;;;;11.35;9.32;;;;;;;;;;4936403;29;20571;-77
2022/04/26 11:35:19;;;;;;;10.07;9.00;;;;;;;;;;4936712;29;20291;-77
2022/04/26 11:37:47;;;;;;;10.50;8.70;;;;;;;;;;4936364;29;20200;-77
2022/04/26 11:40:22;;;;;;;11.00;9.25;;;;;;;;;;4936046;29;20731;-77
2022/04/26 11:42:51;;;;;;;10.38;8.38;;;;;;;;;;4935738;29;20262;-77
2022/04/26 11:45:18;;;;;;;7.75;6.97;;;;;;;;;;4940783;28;20230;-77
2022/04/26 11:47:48;;;;;;;9.98;8.98;;;;;;;;;;4955149;28;20290;-77
2022/04/26 11:50:16;;;;;;;9.63;8.57;;;;;;;;;;4954533;28;20683;-77
2022/04/26 11:52:44;;;;;;;9.95;8.25;;;;;;;;;;4954815;28;20242;-78
2022/04/26 11:55:21;;;;;;;9.70;7.25;;;;;;;;;;4954585;28;20215;-78
2022/04/26 11:57:48;;;;;;;9.45;7.28;;;;;;;;;;4954550;29;20250;-78
2022/04/26 12:00:18;;;;;;;9.77;7.90;;;;;;;;;;4955333;29;20203;-77
2022/04/26 12:02:46;;;;;;;8.57;7.63;;;;;;;;;;4955055;29;20206;-77
2022/04/26 12:05:14;;;;;;;9.82;7.50;;;;;;;;;;4954151;29;20674;-77
2022/04/26 12:07:41;;;;;;;8.68;7.80;;;;;;;;;;4951126;28;20247;-77
2022/04/26 12:10:23;;;;;;;9.77;8.45;;;;;;;;;;4918447;29;20313;-77
2022/04/26 12:12:57;;;;;;;8.75;7.30;;;;;;;;;;4935473;29;20258;-77
2022/04/26 12:15:29;;;;;;;8.43;7.50;;;;;;;;;;4935436;29;20664;-77
2022/04/26 12:18:04;;;;;;;8.80;7.90;;;;;;;;;;4935693;29;20637;-76
2022/04/26 12:20:31;;;;;;;8.52;6.82;;;;;;;;;;4935621;29;20209;-77
2022/04/26 12:22:59;;;;;;;10.43;7.72;;;;;;;;;;4935562;29;20302;-77
2022/04/26 12:25:26;;;;;;;9.70;8.32;;;;;;;;;;4935661;29;20291;-77
2022/04/26 12:28:02;;;;;;;9.50;7.88;;;;;;;;;;4948311;28;20282;-77
2022/04/26 12:30:31;;;;;;;8.90;7.75;;;;;;;;;;4954487;28;20242;-77
2022/04/26 12:32:58;;;;;;;8.93;7.97;;;;;;;;;;4935105;29;20294;-77
2022/04/26 12:35:26;;;;;;;9.07;7.60;;;;;;;;;;4935381;29;20211;-77
2022/04/26 12:38:08;;;;;;;9.45;7.43;;;;;;;;;;4935146;29;20243;-77
2022/04/26 12:40:35;;;;;;;8.85;6.90;;;;;;;;;;4934190;29;20207;-78
2022/04/26 12:43:02;;;;;;;7.35;6.45;;;;;;;;;;4935268;29;20282;-77
2022/04/26 12:45:30;;;;;;;7.78;6.88;;;;;;;;;;4934702;29;20203;-77
2022/04/26 12:50:54;;;;;;;8.00;7.05;;;;;;;;;;4935061;29;20231;-77
2022/04/26 12:53:22;;;;;;;6.90;6.20;;;;;;;;;;4935141;29;20242;-78
2022/04/26 12:55:50;;;;;;;10.82;6.90;;;;;;;;;;4934961;29;20692;-78
2022/04/26 12:58:18;;;;;;;9.20;6.72;;;;;;;;;;4953096;29;20211;-78
2022/04/26 13:00:46;;;;;;;7.70;6.90;;;;;;;;;;4954400;29;20620;-78
2022/04/26 13:03:17;;;;;;;8.45;6.20;;;;;;;;;;4954095;29;20675;-78
2022/04/26 13:05:45;;;;;;;6.28;5.68;;;;;;;;;;4953959;29;20281;-78
2022/04/26 13:08:13;;;;;;;7.13;6.43;;;;;;;;;;4952508;28;20231;-78
2022/04/26 13:10:41;;;;;;;6.72;5.97;;;;;;;;;;4954139;29;20606;-78
2022/04/26 13:13:09;;;;;;;7.35;6.30;;;;;;;;;;4954218;29;20250;-78
2022/04/26 13:15:36;;;;;;;8.07;6.63;;;;;;;;;;4954019;29;20663;-78
2022/04/26 13:18:03;;;;;;;7.38;6.05;;;;;;;;;;4954014;29;20207;-78
2022/04/26 13:20:32;;;;;;;8.10;6.47;;;;;;;;;;4953880;29;20203;-78
2022/04/26 13:23:00;;;;;;;7.95;6.40;;;;;;;;;;4953712;29;20636;-78
2022/04/26 13:25:27;;;;;;;7.85;6.18;;;;;;;;;;4954140;29;20203;-78
2022/04/26 13:27:54;;;;;;;8.68;6.50;;;;;;;;;;4953810;29;20247;-78
2022/04/26 13:30:21;;;;;;;8.52;6.57;;;;;;;;;;4954094;29;20820;-78
2022/04/26 13:32:49;;;;;;;6.82;6.15;;;;;;;;;;4953978;29;20258;-78
2022/04/26 13:35:16;;;;;;;7.50;6.70;;;;;;;;;;4953572;29;20667;-77
2022/04/26 13:37:46;;;;;;;8.27;6.70;;;;;;;;;;4953567;29;20243;-78
2022/04/26 13:40:13;;;;;;;7.97;7.15;;;;;;;;;;4937414;29;20693;-77
2022/04/26 13:42:40;;;;;;;7.82;6.80;;;;;;;;;;4934669;29;20212;-77
2022/04/26 13:45:08;;;;;;;8.70;7.10;;;;;;;;;;4934794;29;20291;-78
2022/04/26 13:47:36;;;;;;;9.02;6.90;;;;;;;;;;4951797;29;20309;-78
2022/04/26 13:50:05;;;;;;;9.40;6.97;;;;;;;;;;4953819;29;20203;-78
2022/04/26 13:52:32;;;;;;;9.18;7.25;;;;;;;;;;4952748;29;20759;-78
2022/04/26 13:55:01;;;;;;;8.73;7.60;;;;;;;;;;4953850;29;20203;-78
2022/04/26 13:57:28;;;;;;;8.73;7.22;;;;;;;;;;4954539;28;20663;-77
2022/04/26 13:59:56;;;;;;;9.10;7.45;;;;;;;;;;4957285;29;20241;-78
2022/04/26 14:02:23;;;;;;;11.27;8.02;;;;;;;;;;4956968;28;20207;-77
2022/04/26 14:04:50;;;;;;;8.13;7.28;;;;;;;;;;4957419;29;20621;-77
2022/04/26 14:07:18;;;;;;;7.55;6.75;;;;;;;;;;4953826;29;20334;-78
2022/04/26 14:09:45;;;;;;;7.47;6.70;;;;;;;;;;4952739;29;20209;-78
2022/04/26 14:12:18;;;;;;;7.63;6.90;;;;;;;;;;4957635;29;20664;-78
2022/04/26 14:22:59;;;;;;;8.10;7.30;;;;;;;;;;4956185;29;20249;-77
2022/04/26 14:25:26;;;;;;;8.15;7.32;;;;;;;;;;4956156;28;20226;-77
2022/04/26 14:27:55;;;;;;;8.27;7.35;;;;;;;;;;4955996;28;20305;-77
2022/04/26 14:30:22;;;;;;;8.32;7.32;;;;;;;;;;4939768;29;20213;-78
2022/04/26 14:32:49;;;;;;;9.10;7.90;;;;;;;;;;4956274;29;20663;-77
2022/04/26 14:35:17;;;;;;;9.00;7.20;;;;;;;;;;4956657;29;20213;-77
2022/04/26 14:37:44;;;;;;;10.07;7.75;;;;;;;;;;4956444;29;20207;-78
2022/04/26 14:40:12;;;;;;;8.35;7.35;;;;;;;;;;4956847;29;20262;-77
2022/04/26 14:42:45;;;;;;;9.00;8.10;;;;;;;;;;4955986;29;20743;-78
2022/04/26 14:45:13;;;;;;;9.23;8.32;;;;;;;;;;4956697;29;20269;-77
2022/04/26 14:47:41;;;;;;;9.30;8.40;;;;;;;;;;4956284;29;20696;-77
2022/04/26 14:50:09;;;;;;;9.60;8.70;;;;;;;;;;4955827;29;20203;-77
2022/04/26 14:52:37;;;;;;;10.77;8.38;;;;;;;;;;4939027;29;20254;-77
2022/04/26 14:55:05;;;;;;;9.27;7.40;;;;;;;;;;4956137;29;20215;-77
2022/04/26 14:57:32;;;;;;;8.80;7.90;;;;;;;;;;4956279;29;20212;-77
2022/04/26 15:00:00;;;;;;;9.55;7.50;;;;;;;;;;4956160;29;20235;-77
2022/04/26 15:02:36;;;;;;;8.80;7.90;;;;;;;;;;4955910;28;20211;-78
2022/04/26 15:05:04;;;;;;;8.60;7.68;;;;;;;;;;4955567;28;20202;-77
2022/04/26 15:09:42;;;;;;;8.80;8.00;;;;;;;;;;4955625;28;20266;-77
2022/04/26 15:10:17;;;;;;;9.10;7.63;;;;;;;;;;4955919;29;20203;-78
2022/04/26 15:18:19;;;;;;;9.23;8.32;;;;;;;;;;4915143;29;20212;-77
2022/04/26 15:20:50;;;;;;;8.57;7.30;;;;;;;;;;4915023;29;20303;-77
2022/04/26 15:23:18;;;;;;;8.43;7.50;;;;;;;;;;4915044;29;20200;-77
2022/04/26 15:25:50;;;;;;;9.27;8.10;;;;;;;;;;4915122;29;20201;-76
2022/04/26 15:28:17;;;;;;;9.20;8.30;;;;;;;;;;4914881;29;20286;-78
2022/04/26 15:30:45;;;;;;;8.10;7.30;;;;;;;;;;4915425;29;20262;-77
2022/04/26 15:33:12;;;;;;;9.18;7.35;;;;;;;;;;4913203;29;20205;-77
2022/04/26 15:35:42;;;;;;;8.05;6.88;;;;;;;;;;4915531;29;20236;-78
2022/04/26 15:38:11;;;;;;;7.53;6.80;;;;;;;;;;4914596;29;20684;-78
2022/04/26 15:40:38;;;;;;;8.35;7.53;;;;;;;;;;4911940;29;20212;-78
2022/04/26 15:43:06;;;;;;;9.15;8.07;;;;;;;;;;4908655;29;20209;-77
2022/04/26 15:45:34;;;;;;;8.60;7.80;;;;;;;;;;4912140;29;20209;-77
2022/04/26 15:48:01;;;;;;;8.15;7.35;;;;;;;;;;4914684;29;20288;-78
2022/04/26 15:50:29;;;;;;;9.18;8.27;;;;;;;;;;4902856;29;20224;-77
2022/04/26 15:52:57;;;;;;;10.32;8.20;;;;;;;;;;4930322;29;20646;-77
2022/04/26 15:55:24;;;;;;;9.57;7.97;;;;;;;;;;4953627;28;20210;-77
2022/04/26 15:57:54;;;;;;;9.00;7.88;;;;;;;;;;4954181;29;20246;-77
2022/04/26 16:00:21;;;;;;;8.77;7.88;;;;;;;;;;4954973;29;20291;-78
2022/04/26 16:02:48;;;;;;;8.18;7.38;;;;;;;;;;4954506;29;20207;-76
2022/04/26 16:05:16;;;;;;;8.15;7.30;;;;;;;;;;4946897;28;20695;-76
2022/04/26 16:07:43;;;;;;;10.43;8.10;;;;;;;;;;4946430;29;20238;-76
2022/04/26 16:21:12;;;;;;;9.63;8.05;;;;;;;;;;4944015;28;20226;-77
2022/04/26 16:23:39;;;;;;;10.00;8.05;;;;;;;;;;4945699;29;20199;-77
2022/04/26 16:26:08;;;;;;;9.03;7.70;;;;;;;;;;4946550;29;20230;-76
2022/04/26 16:28:36;;;;;;;8.80;7.90;;;;;;;;;;4945810;29;20231;-77
2022/04/26 16:31:04;;;;;;;9.00;8.10;;;;;;;;;;4945505;29;20220;-75
2022/04/26 16:33:32;;;;;;;9.80;7.73;;;;;;;;;;4947922;29;20226;-77
2022/04/26 16:35:59;;;;;;;9.07;8.17;;;;;;;;;;4948495;29;20291;-76
2022/04/26 16:38:26;;;;;;;10.57;8.13;;;;;;;;;;4945939;29;20274;-76
2022/04/26 16:40:55;;;;;;;9.43;8.43;;;;;;;;;;4953019;29;20239;-76
2022/04/26 16:43:24;;;;;;;10.03;8.97;;;;;;;;;;4940190;29;20203;-77
2022/04/26 16:45:52;;;;;;;10.87;9.33;;;;;;;;;;4937945;29;20896;-75
2022/04/26 16:48:22;;;;;;;9.20;8.30;;;;;;;;;;4943176;28;20286;-75
2022/04/26 16:50:49;;;;;;;9.63;8.63;;;;;;;;;;4945399;29;20627;-76
2022/04/26 16:53:17;;;;;;;9.53;8.53;;;;;;;;;;4946307;29;20236;-76
2022/04/26 16:55:44;;;;;;;10.23;8.17;;;;;;;;;;4944703;29;20239;-76
2022/04/26 16:58:13;;;;;;;10.03;8.40;;;;;;;;;;4946494;29;20207;-79
2022/04/26 17:00:44;;;;;;;9.33;8.33;;;;;;;;;;4945156;28;20283;-79
2022/04/26 17:03:14;;;;;;;11.90;8.27;;;;;;;;;;4939927;29;20199;-79
2022/04/26 17:05:45;;;;;;;9.50;8.17;;;;;;;;;;4938508;29;20286;-79
2022/04/26 17:08:12;;;;;;;9.43;8.20;;;;;;;;;;4936225;28;20235;-80
2022/04/26 17:10:39;;;;;;;10.40;7.83;;;;;;;;;;4948176;28;20210;-79
2022/04/26 17:13:06;;;;;;;8.83;7.87;;;;;;;;;;4937569;29;20241;-79
2022/04/26 17:15:34;;;;;;;9.67;8.70;;;;;;;;;;4935106;29;20215;-81
2022/04/26 17:18:02;;;;;;;9.43;8.43;;;;;;;;;;4949176;28;20207;-80
2022/04/26 17:20:33;;;;;;;10.47;9.33;;;;;;;;;;4947978;28;20221;-81
2022/04/26 17:23:00;;;;;;;11.17;8.90;;;;;;;;;;4947773;29;20203;-81
2022/04/26 17:25:28;;;;;;;10.30;9.20;;;;;;;;;;4951662;28;20298;-81
2022/04/26 17:27:57;;;;;;;10.43;9.03;;;;;;;;;;4947679;29;20220;-80
2022/04/26 17:30:24;;;;;;;10.17;8.80;;;;;;;;;;4937992;29;20202;-81
2022/04/26 17:32:51;;;;;;;9.80;8.70;;;;;;;;;;4957886;28;20361;-81
2022/04/26 17:35:20;;;;;;;9.30;8.37;;;;;;;;;;4957585;28;20241;-81
2022/04/26 17:37:47;;;;;;;10.43;8.73;;;;;;;;;;4957227;29;20286;-80
2022/04/26 17:40:15;;;;;;;10.60;9.33;;;;;;;;;;4957144;29;20202;-80
2022/04/26 17:42:43;;;;;;;11.17;9.30;;;;;;;;;;4950549;29;20583;-80
2022/04/26 17:45:10;;;;;;;11.93;9.27;;;;;;;;;;4949570;29;20226;-81
2022/04/26 17:47:38;;;;;;;11.30;9.20;;;;;;;;;;4956877;29;20262;-81
2022/04/26 17:50:06;;;;;;;10.90;9.70;;;;;;;;;;4955829;29;20230;-81
2022/04/26 17:56:28;;;;;;;10.63;8.80;;;;;;;;;;4953422;29;20285;-81
2022/04/26 17:58:09;;;;;;;10.70;9.00;;;;;;;;;;4960099;29;20235;-80
2022/04/26 18:00:36;;;;;;;10.07;8.70;;;;;;;;;;4956704;29;20230;-80
2022/04/26 18:03:04;;;;;;;9.40;8.40;;;;;;;;;;4943758;29;20294;-79
2022/04/26 18:05:33;;;;;;;9.57;8.40;;;;;;;;;;4938041;29;20294;-80
2022/04/26 18:08:01;;;;;;;9.43;8.10;;;;;;;;;;4937701;29;20263;-80
2022/04/26 18:10:30;;;;;;;10.07;8.93;;;;;;;;;;4950242;28;20285;-81
2022/04/26 18:12:57;;;;;;;9.47;8.23;;;;;;;;;;4950737;28;20221;-81
2022/04/26 18:15:24;;;;;;;11.57;9.00;;;;;;;;;;4952385;28;20234;-80
2022/04/26 18:17:52;;;;;;;12.70;8.60;;;;;;;;;;4947329;29;20230;-81
2022/04/26 18:20:20;;;;;;;12.93;8.90;;;;;;;;;;4955070;29;20750;-81
2022/04/26 18:22:47;;;;;;;11.67;8.93;;;;;;;;;;4949280;29;20209;-80
2022/04/26 18:26:10;;;;;;;10.87;8.80;;;;;;;;;;4954204;29;20227;-81
2022/04/26 18:28:03;;;;;;;10.17;8.83;;;;;;;;;;4950328;29;20231;-81
2022/04/26 18:30:30;;;;;;;11.70;8.70;;;;;;;;;;4954751;28;20317;-81
2022/04/26 18:32:57;;;;;;;11.20;9.57;;;;;;;;;;4937123;29;20231;-81
2022/04/26 18:35:25;;;;;;;11.80;9.73;;;;;;;;;;4949310;29;20235;-81
2022/04/26 18:37:52;;;;;;;11.43;9.20;;;;;;;;;;4939594;28;20681;-81
2022/04/26 18:40:22;;;;;;;13.20;10.07;;;;;;;;;;4945896;29;20251;-81
2022/04/26 18:42:50;;;;;;;11.70;9.83;;;;;;;;;;4949723;28;20203;-80
2022/04/26 18:45:18;;;;;;;11.47;9.90;;;;;;;;;;4952353;28;20199;-80
2022/04/26 18:47:46;;;;;;;13.60;10.03;;;;;;;;;;4945229;29;20585;-80
2022/04/26 18:50:13;;;;;;;11.37;9.83;;;;;;;;;;4936808;29;20242;-80
2022/04/26 18:52:41;;;;;;;14.03;10.57;;;;;;;;;;4951665;29;20678;-81
2022/04/26 18:55:08;;;;;;;11.97;9.60;;;;;;;;;;4945687;29;20239;-80
2022/04/26 18:57:37;;;;;;;13.63;9.93;;;;;;;;;;4948314;29;20235;-81
2022/04/26 19:00:04;;;;;;;11.33;9.67;;;;;;;;;;4948063;29;20610;-80
2022/04/26 19:02:32;;;;;;;12.80;9.80;;;;;;;;;;4943929;28;20234;-81